Карточка аэропорта UAKK

Внимание!
Информация на этой странице в стадии наполнения.
Если вы не увидели какой-то информации, или заметили неточность - пожалуйста сообщите нам!
Спасибо!
Команда RU-STAFF
Название аэропортаКараганда
Название аэропорта (англ.)Karaganda
Превышение1768 ft. (538.9 m.)
Координаты49°40.302', 73°20.118'
Высота перехода10000
Эшелон переходаby ATC
Коды ответчика0630-0637, 7220-7227
Зона ОрВДАстана РПИ (UACN)
Данные METARUAKK 121930Z 33002MPS 270V360 CAVOK M00/M04 Q1016 NOSIG RMK QFE715/0953
Проноз погоды (TAF)UAKK 121700Z 1218/1318 20005MPS 9999 SCT040 BKN100 TX13/1309Z TNM01/1223Z TEMPO 1218/1301 VRB02MPS 3100 BR BECMG 1306/1308 23008MPS TEMPO 1306/1312 SCT020 BKN030
NOTAMshow/hide NOTAM
AWOS   TABLE

Информация о ВПП

ВПП Длина ВПП (м.) Покрытие Курс ВПП Частота ILS
053601Железобетон50109.9
233601Железобетон230111.7

Диспетчерские позиции




Спутниковое изображение